Time;durP1;ratioP1;P1;durP2;ratioP2;P2;SDS_P1;SDS_P2;PMS_P1;PMS_P2;Temp;Humidity;BMP_temperature;BMP_pressure;BME280_temperature;BME280_humidity;BME280_pressure;Samples;Min_cycle;Max_cycle;Signal;HPM_P1;HPM_P2
2021/12/16 00:01:42;;;;;;;272.55;63.67;;;;;;;;;;5051315;28;20290;-67
2021/12/16 00:08:59;;;;;;;278.42;64.38;;;;;;;;;;5025118;28;20213;-68
2021/12/16 00:33:38;;;;;;;244.90;58.45;;;;;;;;;;5035087;28;20221;-68
2021/12/16 00:36:06;;;;;;;281.50;61.50;;;;;;;;;;5050648;28;20216;-67
2021/12/16 00:38:34;;;;;;;255.43;63.88;;;;;;;;;;5049790;28;20242;-69
2021/12/16 00:41:01;;;;;;;275.60;62.90;;;;;;;;;;5050566;28;20240;-68
2021/12/16 00:43:37;;;;;;;280.92;64.65;;;;;;;;;;5050460;28;20241;-67
2021/12/16 00:46:16;;;;;;;256.50;65.97;;;;;;;;;;5050364;28;20292;-68
2021/12/16 00:49:16;;;;;;;239.85;57.10;;;;;;;;;;5050648;28;20209;-67
2021/12/16 00:54:29;;;;;;;252.02;59.53;;;;;;;;;;5050393;28;20595;-67
2021/12/16 00:57:02;;;;;;;246.48;58.15;;;;;;;;;;5050400;28;20657;-67
2021/12/16 00:59:35;;;;;;;213.02;54.55;;;;;;;;;;5050481;28;20299;-67
2021/12/16 01:02:13;;;;;;;238.55;60.92;;;;;;;;;;5050210;28;20205;-67
2021/12/16 01:05:10;;;;;;;204.00;54.95;;;;;;;;;;5050427;28;20247;-67
2021/12/16 01:08:07;;;;;;;259.23;61.17;;;;;;;;;;5050535;28;20209;-67
2021/12/16 01:35:30;;;;;;;168.75;48.97;;;;;;;;;;5050225;28;20258;-67
2021/12/16 01:38:27;;;;;;;219.45;58.90;;;;;;;;;;5049767;28;20262;-67
2021/12/16 01:52:10;;;;;;;150.77;51.83;;;;;;;;;;5050207;28;20205;-67
2021/12/16 01:54:52;;;;;;;190.05;51.55;;;;;;;;;;5053694;28;20658;-67
2021/12/16 01:57:24;;;;;;;181.90;51.28;;;;;;;;;;5049364;28;20572;-67
2021/12/16 01:59:59;;;;;;;228.60;59.28;;;;;;;;;;5053335;28;20216;-67
2021/12/16 02:02:37;;;;;;;202.93;51.20;;;;;;;;;;5053735;28;20240;-67
2021/12/16 02:05:22;;;;;;;208.05;54.85;;;;;;;;;;5053294;28;20250;-68
2021/12/16 02:08:12;;;;;;;200.75;53.55;;;;;;;;;;5053181;28;20212;-68
2021/12/16 02:10:45;;;;;;;220.15;54.67;;;;;;;;;;5055139;28;20298;-67
2021/12/16 02:13:32;;;;;;;193.85;51.10;;;;;;;;;;5053484;28;20244;-67
2021/12/16 02:36:24;;;;;;;202.98;52.83;;;;;;;;;;5052741;28;20220;-69
2021/12/16 02:38:52;;;;;;;200.48;53.30;;;;;;;;;;5052774;28;20259;-67
2021/12/16 02:41:20;;;;;;;191.43;50.58;;;;;;;;;;5052677;28;20688;-67
2021/12/16 02:44:12;;;;;;;195.23;50.78;;;;;;;;;;5052206;28;20225;-67
2021/12/16 02:49:25;;;;;;;187.40;50.58;;;;;;;;;;5052475;28;20724;-68
2021/12/16 02:51:52;;;;;;;192.13;52.40;;;;;;;;;;5052431;28;20212;-67
2021/12/16 02:54:20;;;;;;;194.80;51.95;;;;;;;;;;5046239;28;20275;-67
2021/12/16 02:56:47;;;;;;;170.25;51.45;;;;;;;;;;5052430;28;20292;-67
2021/12/16 02:59:19;;;;;;;197.32;52.88;;;;;;;;;;5052392;28;20236;-68
2021/12/16 03:01:48;;;;;;;209.45;53.58;;;;;;;;;;5051976;28;20621;-67
2021/12/16 03:04:18;;;;;;;215.73;52.50;;;;;;;;;;5051985;28;20306;-68
2021/12/16 03:06:48;;;;;;;204.70;52.35;;;;;;;;;;5052529;28;20270;-67
2021/12/16 03:09:17;;;;;;;248.00;54.60;;;;;;;;;;5052315;28;20655;-68
2021/12/16 03:12:02;;;;;;;250.45;57.58;;;;;;;;;;5051849;28;20216;-71
2021/12/16 03:14:37;;;;;;;299.65;62.42;;;;;;;;;;5052291;28;20286;-67
2021/12/16 03:17:14;;;;;;;274.10;62.60;;;;;;;;;;5052218;28;20287;-68
2021/12/16 03:19:54;;;;;;;249.07;57.63;;;;;;;;;;5051894;28;20215;-67
2021/12/16 03:22:41;;;;;;;269.48;60.05;;;;;;;;;;5051910;28;20205;-67
2021/12/16 03:25:18;;;;;;;247.88;55.78;;;;;;;;;;5051856;28;20586;-67
2021/12/16 03:30:55;;;;;;;231.57;55.60;;;;;;;;;;5038546;28;20296;-67
2021/12/16 03:36:07;;;;;;;230.10;57.25;;;;;;;;;;5038376;28;20215;-67
2021/12/16 03:38:38;;;;;;;203.63;53.05;;;;;;;;;;5051945;28;20263;-68
2021/12/16 03:41:06;;;;;;;284.45;63.20;;;;;;;;;;5051454;28;20209;-68
2021/12/16 03:43:35;;;;;;;301.50;64.80;;;;;;;;;;5051383;28;20229;-67
2021/12/16 03:48:53;;;;;;;245.27;56.40;;;;;;;;;;5051488;28;20269;-68
2021/12/16 03:51:22;;;;;;;249.15;58.22;;;;;;;;;;5051370;28;20216;-68
2021/12/16 03:53:51;;;;;;;270.33;59.72;;;;;;;;;;5050938;28;20236;-67
2021/12/16 03:56:19;;;;;;;242.45;57.65;;;;;;;;;;5052363;28;20240;-69
2021/12/16 03:58:46;;;;;;;257.42;58.97;;;;;;;;;;5052504;28;20209;-67
2021/12/16 04:01:22;;;;;;;287.98;63.50;;;;;;;;;;5050735;28;20213;-67
2021/12/16 04:03:50;;;;;;;286.95;70.45;;;;;;;;;;5050786;28;20237;-67
2021/12/16 04:06:17;;;;;;;231.95;55.25;;;;;;;;;;5050991;28;20263;-68
2021/12/16 04:08:45;;;;;;;260.38;60.85;;;;;;;;;;5051487;28;20311;-68
2021/12/16 04:11:18;;;;;;;242.80;57.00;;;;;;;;;;5050991;28;20201;-67
2021/12/16 04:13:54;;;;;;;247.63;56.72;;;;;;;;;;5050836;28;20200;-67
2021/12/16 04:16:24;;;;;;;243.40;56.45;;;;;;;;;;5051049;28;20205;-67
2021/12/16 04:18:51;;;;;;;224.27;54.28;;;;;;;;;;5050783;28;20224;-67
2021/12/16 04:21:20;;;;;;;274.33;59.90;;;;;;;;;;5050845;28;20219;-67
2021/12/16 04:23:48;;;;;;;242.63;55.63;;;;;;;;;;5050615;28;20328;-67
2021/12/16 04:26:16;;;;;;;238.02;54.85;;;;;;;;;;5050787;28;20224;-69
2021/12/16 04:28:43;;;;;;;236.88;54.45;;;;;;;;;;5050799;28;20213;-67
2021/12/16 04:31:11;;;;;;;224.20;54.40;;;;;;;;;;5050645;28;20220;-67
2021/12/16 04:33:41;;;;;;;273.50;59.22;;;;;;;;;;5050865;28;20207;-67
2021/12/16 04:36:09;;;;;;;261.95;58.45;;;;;;;;;;5044330;28;20209;-67
2021/12/16 04:38:37;;;;;;;258.48;57.33;;;;;;;;;;5050670;28;20197;-67
2021/12/16 04:41:08;;;;;;;249.02;58.22;;;;;;;;;;5050588;28;20205;-69
2021/12/16 04:43:40;;;;;;;245.20;56.60;;;;;;;;;;5050492;28;20693;-68
2021/12/16 04:46:08;;;;;;;245.95;57.45;;;;;;;;;;5050669;28;20299;-67
2021/12/16 04:48:36;;;;;;;300.42;61.03;;;;;;;;;;5050615;28;20213;-68
2021/12/16 04:51:06;;;;;;;284.40;60.70;;;;;;;;;;5050465;28;20212;-67
2021/12/16 04:53:33;;;;;;;286.92;59.13;;;;;;;;;;5050291;28;20694;-67
2021/12/16 04:56:01;;;;;;;283.25;65.07;;;;;;;;;;5050190;28;20295;-67
2021/12/16 04:58:29;;;;;;;222.35;53.25;;;;;;;;;;5050366;28;20213;-68
2021/12/16 05:00:57;;;;;;;89.40;35.65;;;;;;;;;;5050588;28;20577;-67
2021/12/16 05:03:25;;;;;;;174.20;48.10;;;;;;;;;;5050240;28;20237;-67
2021/12/16 05:05:52;;;;;;;179.10;49.50;;;;;;;;;;5050140;28;20620;-67
2021/12/16 05:08:21;;;;;;;187.43;48.55;;;;;;;;;;5050543;28;20213;-67
2021/12/16 05:10:51;;;;;;;194.73;49.22;;;;;;;;;;5050172;28;20209;-67
2021/12/16 05:13:22;;;;;;;191.65;49.03;;;;;;;;;;5050202;28;20666;-67
2021/12/16 05:15:49;;;;;;;194.50;51.97;;;;;;;;;;5054249;28;20244;-67
2021/12/16 05:18:22;;;;;;;117.97;41.47;;;;;;;;;;5054337;28;20209;-67
2021/12/16 05:20:49;;;;;;;182.80;49.45;;;;;;;;;;5054252;28;20266;-67
2021/12/16 05:28:46;;;;;;;190.98;50.10;;;;;;;;;;5051335;28;20236;-68
2021/12/16 05:31:14;;;;;;;224.43;53.75;;;;;;;;;;5054085;28;20247;-67
2021/12/16 05:33:42;;;;;;;230.70;54.67;;;;;;;;;;5053909;28;20205;-68
2021/12/16 05:36:10;;;;;;;197.88;50.80;;;;;;;;;;5053884;28;20212;-67
2021/12/16 05:38:37;;;;;;;158.32;46.90;;;;;;;;;;5054069;28;20232;-67
2021/12/16 05:41:08;;;;;;;229.50;56.40;;;;;;;;;;5054199;28;20300;-67
2021/12/16 05:43:36;;;;;;;178.73;48.95;;;;;;;;;;5054961;28;20221;-68
2021/12/16 05:46:04;;;;;;;241.77;64.22;;;;;;;;;;5053999;28;20229;-67
2021/12/16 05:48:34;;;;;;;222.40;53.40;;;;;;;;;;5053712;28;20216;-67
2021/12/16 05:51:03;;;;;;;239.45;57.05;;;;;;;;;;5053667;28;20205;-67
2021/12/16 05:53:31;;;;;;;215.73;52.47;;;;;;;;;;5053754;28;20256;-68
2021/12/16 05:55:59;;;;;;;205.35;56.35;;;;;;;;;;5053492;28;20300;-67
2021/12/16 05:58:28;;;;;;;170.50;49.05;;;;;;;;;;5053630;28;20278;-67
2021/12/16 06:00:56;;;;;;;212.90;53.30;;;;;;;;;;5053470;28;20220;-67
2021/12/16 06:03:25;;;;;;;229.25;53.35;;;;;;;;;;5046992;28;20324;-66
2021/12/16 06:05:53;;;;;;;209.90;50.72;;;;;;;;;;5053237;28;20232;-67
2021/12/16 06:08:20;;;;;;;201.75;53.13;;;;;;;;;;5053508;28;20903;-66
2021/12/16 06:11:13;;;;;;;230.43;57.53;;;;;;;;;;5052935;28;20215;-68
2021/12/16 06:13:46;;;;;;;196.32;50.58;;;;;;;;;;5047116;28;20205;-69
2021/12/16 06:27:16;;;;;;;189.30;51.80;;;;;;;;;;5053149;28;20276;-66
2021/12/16 06:29:47;;;;;;;182.32;50.78;;;;;;;;;;5053275;28;20215;-67
2021/12/16 06:32:15;;;;;;;222.85;59.08;;;;;;;;;;5052883;28;20209;-67
2021/12/16 06:34:43;;;;;;;278.63;69.28;;;;;;;;;;5052914;28;20216;-66
2021/12/16 06:37:11;;;;;;;235.10;60.33;;;;;;;;;;5052920;28;20201;-67
2021/12/16 06:39:38;;;;;;;214.02;56.15;;;;;;;;;;5052645;28;20670;-67
2021/12/16 06:42:08;;;;;;;238.38;56.00;;;;;;;;;;5052459;28;20665;-68
2021/12/16 06:44:40;;;;;;;301.95;69.65;;;;;;;;;;5052515;28;20355;-67
2021/12/16 06:47:14;;;;;;;296.75;74.35;;;;;;;;;;5052692;28;20653;-69
2021/12/16 06:49:44;;;;;;;331.30;71.20;;;;;;;;;;5046987;28;20339;-68
2021/12/16 06:52:14;;;;;;;310.92;71.75;;;;;;;;;;5045906;28;20213;-68
2021/12/16 06:54:55;;;;;;;305.80;64.15;;;;;;;;;;5052457;28;20205;-67
2021/12/16 06:57:33;;;;;;;311.25;62.60;;;;;;;;;;5052938;28;20644;-67
2021/12/16 07:00:08;;;;;;;351.20;75.75;;;;;;;;;;5046823;28;20213;-67
2021/12/16 07:02:49;;;;;;;286.98;61.25;;;;;;;;;;5052131;28;20693;-68
2021/12/16 07:05:17;;;;;;;276.75;60.00;;;;;;;;;;5052382;28;20323;-67
2021/12/16 07:07:45;;;;;;;299.48;63.15;;;;;;;;;;5052505;28;20225;-68
2021/12/16 07:10:14;;;;;;;316.25;65.15;;;;;;;;;;5052363;28;20241;-67
2021/12/16 07:12:47;;;;;;;314.55;65.60;;;;;;;;;;5045714;28;20303;-67
2021/12/16 07:15:15;;;;;;;324.98;67.32;;;;;;;;;;5052242;28;20231;-67
2021/12/16 07:17:44;;;;;;;264.95;58.20;;;;;;;;;;5052010;28;20213;-66
2021/12/16 07:20:14;;;;;;;260.73;61.10;;;;;;;;;;5052039;28;20216;-67
2021/12/16 07:22:41;;;;;;;277.55;59.45;;;;;;;;;;5051942;28;20221;-67
2021/12/16 07:25:09;;;;;;;239.45;56.55;;;;;;;;;;5051921;28;20279;-67
2021/12/16 07:27:37;;;;;;;255.98;61.05;;;;;;;;;;5051840;28;20586;-67
2021/12/16 07:30:06;;;;;;;271.88;60.28;;;;;;;;;;5052290;28;20574;-67
2021/12/16 07:32:35;;;;;;;275.77;61.67;;;;;;;;;;5052902;28;20205;-66
2021/12/16 07:35:05;;;;;;;351.25;72.65;;;;;;;;;;5051973;28;20370;-67
2021/12/16 07:37:32;;;;;;;337.85;72.60;;;;;;;;;;5044591;28;20205;-67
2021/12/16 07:40:06;;;;;;;286.80;68.43;;;;;;;;;;5051346;28;20209;-67
2021/12/16 07:42:43;;;;;;;268.73;60.80;;;;;;;;;;5051910;28;20288;-67
2021/12/16 07:45:12;;;;;;;255.98;59.80;;;;;;;;;;5051931;28;20236;-68
2021/12/16 07:47:39;;;;;;;322.45;66.90;;;;;;;;;;5051443;28;20201;-67
2021/12/16 07:50:09;;;;;;;272.17;64.13;;;;;;;;;;5051181;28;20596;-67
2021/12/16 07:52:40;;;;;;;270.38;61.47;;;;;;;;;;5051221;28;20234;-67
2021/12/16 07:55:07;;;;;;;270.27;59.70;;;;;;;;;;5051350;28;20213;-67
2021/12/16 07:57:35;;;;;;;305.65;65.38;;;;;;;;;;5051200;28;20741;-66
2021/12/16 08:00:03;;;;;;;357.60;75.60;;;;;;;;;;5051360;28;20205;-66
2021/12/16 08:02:31;;;;;;;335.23;68.93;;;;;;;;;;5051099;28;20383;-67
2021/12/16 08:04:58;;;;;;;338.88;69.72;;;;;;;;;;5051065;28;20229;-68
2021/12/16 08:07:27;;;;;;;329.30;69.28;;;;;;;;;;5051138;28;20232;-67
2021/12/16 08:09:55;;;;;;;313.65;72.78;;;;;;;;;;5050762;28;20244;-67
2021/12/16 08:12:22;;;;;;;338.55;70.55;;;;;;;;;;5050946;28;20205;-67
2021/12/16 08:14:50;;;;;;;256.08;59.85;;;;;;;;;;5051319;28;20652;-66
2021/12/16 08:17:17;;;;;;;324.83;68.85;;;;;;;;;;5051153;28;20343;-67
2021/12/16 08:19:46;;;;;;;292.40;59.63;;;;;;;;;;5050781;28;20206;-71
2021/12/16 08:22:13;;;;;;;258.50;59.90;;;;;;;;;;5050838;28;20205;-67
2021/12/16 08:24:42;;;;;;;242.15;61.42;;;;;;;;;;5050791;28;20216;-67
2021/12/16 08:27:10;;;;;;;295.65;61.78;;;;;;;;;;5051125;28;20205;-66
2021/12/16 08:29:37;;;;;;;239.73;59.55;;;;;;;;;;5050795;28;20736;-66
2021/12/16 08:32:05;;;;;;;315.83;69.68;;;;;;;;;;5051283;28;20216;-67
2021/12/16 08:34:37;;;;;;;260.48;61.13;;;;;;;;;;5051946;28;20236;-67
2021/12/16 08:37:06;;;;;;;271.60;63.47;;;;;;;;;;5052150;28;20205;-67
2021/12/16 08:39:33;;;;;;;249.98;58.92;;;;;;;;;;5051763;28;20263;-67
2021/12/16 08:42:02;;;;;;;318.88;71.78;;;;;;;;;;5051838;28;20236;-67
2021/12/16 08:44:29;;;;;;;251.40;62.47;;;;;;;;;;5052219;28;20230;-67
2021/12/16 08:46:59;;;;;;;190.00;54.13;;;;;;;;;;5051749;28;20232;-68
2021/12/16 08:49:27;;;;;;;251.27;63.42;;;;;;;;;;5045082;28;20217;-67
2021/12/16 08:51:56;;;;;;;292.52;73.45;;;;;;;;;;5051614;28;20670;-67
2021/12/16 08:54:24;;;;;;;269.15;65.88;;;;;;;;;;5051575;28;20216;-67
2021/12/16 08:56:51;;;;;;;264.73;63.83;;;;;;;;;;5051970;28;20220;-68
2021/12/16 08:59:22;;;;;;;294.65;65.32;;;;;;;;;;5051523;28;20207;-67
2021/12/16 09:01:51;;;;;;;293.80;64.05;;;;;;;;;;5051450;28;20213;-67
2021/12/16 09:04:19;;;;;;;297.27;64.70;;;;;;;;;;5051445;28;20205;-66
2021/12/16 09:06:47;;;;;;;296.80;64.13;;;;;;;;;;5051674;28;20225;-67
2021/12/16 09:09:15;;;;;;;255.02;63.10;;;;;;;;;;5051797;28;20662;-66
2021/12/16 09:11:59;;;;;;;237.25;59.83;;;;;;;;;;5050945;28;20208;-67
2021/12/16 09:14:27;;;;;;;291.02;66.00;;;;;;;;;;5045319;28;20669;-67
2021/12/16 09:16:55;;;;;;;312.25;67.93;;;;;;;;;;5050441;28;20217;-67
2021/12/16 09:19:22;;;;;;;303.98;65.20;;;;;;;;;;5052352;28;20240;-67
2021/12/16 09:21:50;;;;;;;308.45;67.28;;;;;;;;;;5050332;28;20303;-67
2021/12/16 09:24:17;;;;;;;310.92;68.03;;;;;;;;;;5050238;28;20308;-66
2021/12/16 09:26:46;;;;;;;265.35;65.18;;;;;;;;;;5050031;28;20229;-67
2021/12/16 09:29:13;;;;;;;226.68;59.00;;;;;;;;;;5050160;28;20213;-67
2021/12/16 09:31:43;;;;;;;254.25;60.83;;;;;;;;;;5050289;28;20596;-68
2021/12/16 09:34:10;;;;;;;260.15;61.65;;;;;;;;;;5050487;28;20210;-67
2021/12/16 09:36:39;;;;;;;218.85;57.30;;;;;;;;;;5050059;28;20241;-66
2021/12/16 09:39:11;;;;;;;280.88;63.63;;;;;;;;;;5050108;28;20213;-67
2021/12/16 09:41:39;;;;;;;248.70;60.83;;;;;;;;;;5050059;28;20205;-67
2021/12/16 09:44:06;;;;;;;289.58;63.08;;;;;;;;;;5049927;28;20241;-69
2021/12/16 09:46:34;;;;;;;290.33;65.65;;;;;;;;;;5050105;28;20240;-67
2021/12/16 09:49:03;;;;;;;255.65;64.10;;;;;;;;;;5050041;28;20218;-67
2021/12/16 09:51:32;;;;;;;280.35;68.68;;;;;;;;;;5049953;28;20208;-66
2021/12/16 09:54:01;;;;;;;278.80;69.70;;;;;;;;;;5049653;28;20263;-67
2021/12/16 09:56:30;;;;;;;284.20;68.63;;;;;;;;;;5050104;28;20284;-67
2021/12/16 09:59:00;;;;;;;247.27;61.78;;;;;;;;;;5049968;28;20213;-67
2021/12/16 10:01:28;;;;;;;238.70;62.45;;;;;;;;;;5052845;28;20292;-67
2021/12/16 10:04:00;;;;;;;234.18;66.03;;;;;;;;;;5053095;28;20666;-68
2021/12/16 10:06:30;;;;;;;284.98;67.85;;;;;;;;;;5053410;28;20227;-67
2021/12/16 10:08:59;;;;;;;194.60;57.88;;;;;;;;;;5046669;28;20670;-67
2021/12/16 10:11:27;;;;;;;221.30;54.45;;;;;;;;;;5053474;28;20214;-67
2021/12/16 10:14:05;;;;;;;244.25;66.60;;;;;;;;;;5053021;28;20220;-67
2021/12/16 10:19:19;;;;;;;223.70;59.92;;;;;;;;;;5047309;28;20211;-67
2021/12/16 10:21:48;;;;;;;195.43;58.15;;;;;;;;;;5052913;28;20213;-67
2021/12/16 10:24:23;;;;;;;202.45;61.38;;;;;;;;;;5053028;28;20201;-68
2021/12/16 10:27:05;;;;;;;246.07;61.60;;;;;;;;;;5052865;28;20346;-66
2021/12/16 10:29:35;;;;;;;238.18;60.90;;;;;;;;;;5046620;28;20220;-67
2021/12/16 10:32:02;;;;;;;237.68;63.70;;;;;;;;;;5052828;28;20213;-67
2021/12/16 10:34:31;;;;;;;200.80;57.10;;;;;;;;;;5052862;28;20213;-66
2021/12/16 10:37:00;;;;;;;199.55;56.67;;;;;;;;;;5053031;28;20205;-67
2021/12/16 10:39:28;;;;;;;181.80;55.20;;;;;;;;;;5052683;28;20205;-67
2021/12/16 10:41:56;;;;;;;278.30;67.93;;;;;;;;;;5052428;28;20213;-66
2021/12/16 10:44:24;;;;;;;194.52;54.17;;;;;;;;;;5052633;28;20208;-67
2021/12/16 10:46:59;;;;;;;295.58;66.80;;;;;;;;;;5052803;28;20314;-67
2021/12/16 10:49:27;;;;;;;247.45;63.58;;;;;;;;;;5053012;28;20617;-68
2021/12/16 10:51:56;;;;;;;304.77;72.97;;;;;;;;;;5052487;28;20279;-67
2021/12/16 10:54:26;;;;;;;284.48;67.72;;;;;;;;;;5052389;28;20308;-68
2021/12/16 10:56:55;;;;;;;314.30;70.57;;;;;;;;;;5052728;28;20302;-67
2021/12/16 10:59:24;;;;;;;312.30;71.00;;;;;;;;;;5052573;28;20289;-67
2021/12/16 11:01:55;;;;;;;227.70;61.78;;;;;;;;;;5052293;28;20232;-68
2021/12/16 11:04:26;;;;;;;221.32;58.30;;;;;;;;;;5052707;28;20212;-67
2021/12/16 11:06:55;;;;;;;300.73;67.30;;;;;;;;;;5054037;28;20728;-67
2021/12/16 11:09:23;;;;;;;306.88;67.10;;;;;;;;;;5052215;28;20217;-67
2021/12/16 11:12:05;;;;;;;309.88;68.35;;;;;;;;;;5052133;28;20205;-67
2021/12/16 11:14:33;;;;;;;307.88;67.45;;;;;;;;;;5052174;28;20201;-68
2021/12/16 11:17:02;;;;;;;327.92;72.35;;;;;;;;;;5052092;28;20216;-66
2021/12/16 11:19:43;;;;;;;274.70;67.45;;;;;;;;;;5051964;28;20213;-67
2021/12/16 11:22:13;;;;;;;268.52;65.65;;;;;;;;;;5051890;28;20688;-66
2021/12/16 11:24:41;;;;;;;244.77;62.92;;;;;;;;;;5051850;28;20209;-67
2021/12/16 11:27:24;;;;;;;302.88;68.55;;;;;;;;;;5051753;28;20232;-67
2021/12/16 11:29:51;;;;;;;263.85;66.18;;;;;;;;;;5051646;28;20215;-68
2021/12/16 11:32:42;;;;;;;325.55;68.75;;;;;;;;;;5052029;28;20650;-66
2021/12/16 11:35:28;;;;;;;295.13;66.40;;;;;;;;;;5051707;28;20212;-66
2021/12/16 11:37:57;;;;;;;261.75;64.53;;;;;;;;;;5051829;28;20219;-69
2021/12/16 11:40:26;;;;;;;233.32;61.63;;;;;;;;;;5051593;28;20725;-66
2021/12/16 11:43:02;;;;;;;238.43;59.10;;;;;;;;;;5051824;28;20227;-67
2021/12/16 11:45:34;;;;;;;179.00;51.95;;;;;;;;;;5051686;28;20590;-67
2021/12/16 11:48:02;;;;;;;272.15;64.75;;;;;;;;;;5051283;28;20209;-68
2021/12/16 11:50:37;;;;;;;232.00;60.97;;;;;;;;;;5051637;28;20205;-66
2021/12/16 11:53:05;;;;;;;266.33;66.28;;;;;;;;;;5051667;28;20235;-66
2021/12/16 11:55:35;;;;;;;248.27;64.18;;;;;;;;;;5051423;28;20296;-68
2021/12/16 11:58:05;;;;;;;317.45;72.95;;;;;;;;;;5051081;28;20209;-67
2021/12/16 12:00:33;;;;;;;346.08;77.25;;;;;;;;;;5051267;28;20681;-67
2021/12/16 12:03:02;;;;;;;325.70;74.00;;;;;;;;;;5051091;28;20240;-67
2021/12/16 12:05:31;;;;;;;309.10;72.38;;;;;;;;;;5051205;28;20216;-67
2021/12/16 12:08:00;;;;;;;308.65;72.80;;;;;;;;;;5051060;28;20320;-67
2021/12/16 12:10:38;;;;;;;303.08;67.18;;;;;;;;;;5044351;28;20205;-67
2021/12/16 12:13:07;;;;;;;313.80;71.75;;;;;;;;;;5044904;28;20228;-68
2021/12/16 12:15:36;;;;;;;286.33;67.75;;;;;;;;;;5050867;28;20201;-67
2021/12/16 12:18:05;;;;;;;324.08;75.70;;;;;;;;;;5050716;28;20300;-67
2021/12/16 12:20:33;;;;;;;326.13;71.82;;;;;;;;;;5051061;28;20213;-68
2021/12/16 12:23:01;;;;;;;287.92;69.03;;;;;;;;;;5050391;28;20687;-67
2021/12/16 12:25:30;;;;;;;309.83;70.30;;;;;;;;;;5050850;28;20209;-67
2021/12/16 12:27:57;;;;;;;333.05;79.55;;;;;;;;;;5050481;28;20230;-68
2021/12/16 12:30:26;;;;;;;320.60;74.57;;;;;;;;;;5050669;28;20205;-67
2021/12/16 12:32:54;;;;;;;307.92;70.43;;;;;;;;;;5050667;28;20297;-66
2021/12/16 12:35:22;;;;;;;327.55;71.85;;;;;;;;;;5050907;28;20209;-67
2021/12/16 12:37:51;;;;;;;336.70;73.57;;;;;;;;;;5050368;28;20209;-66
2021/12/16 12:40:21;;;;;;;284.38;67.53;;;;;;;;;;5050577;28;20208;-67
2021/12/16 12:42:50;;;;;;;303.55;68.00;;;;;;;;;;5050691;28;20216;-67
2021/12/16 12:45:19;;;;;;;347.83;74.25;;;;;;;;;;5050527;28;20697;-68
2021/12/16 12:47:49;;;;;;;326.55;72.65;;;;;;;;;;5050530;28;20232;-68
2021/12/16 12:50:18;;;;;;;304.73;67.82;;;;;;;;;;5050720;28;20216;-67
2021/12/16 12:52:49;;;;;;;239.00;61.35;;;;;;;;;;5051063;28;20255;-66
2021/12/16 12:55:18;;;;;;;275.23;68.20;;;;;;;;;;5051312;28;20619;-70
2021/12/16 12:57:47;;;;;;;309.73;72.70;;;;;;;;;;5050160;28;20209;-68
2021/12/16 13:00:25;;;;;;;282.75;66.72;;;;;;;;;;5050988;28;20240;-67
2021/12/16 13:02:58;;;;;;;304.30;69.78;;;;;;;;;;5045358;28;20233;-67
2021/12/16 13:05:26;;;;;;;298.38;70.43;;;;;;;;;;5050458;28;20207;-66
2021/12/16 13:07:55;;;;;;;303.63;69.78;;;;;;;;;;5050156;28;20252;-67
2021/12/16 13:10:24;;;;;;;313.65;71.75;;;;;;;;;;5050329;28;20212;-67
2021/12/16 13:12:57;;;;;;;250.73;65.22;;;;;;;;;;5050644;28;20205;-67
2021/12/16 13:15:34;;;;;;;225.00;60.58;;;;;;;;;;5050728;28;20220;-67
2021/12/16 13:23:38;;;;;;;319.05;73.70;;;;;;;;;;5046381;28;20346;-67
2021/12/16 13:29:06;;;;;;;299.08;70.70;;;;;;;;;;5034441;28;20205;-67
2021/12/16 13:31:40;;;;;;;292.80;70.00;;;;;;;;;;5050386;28;20630;-67
2021/12/16 13:37:08;;;;;;;225.38;61.47;;;;;;;;;;5094474;27;20657;-66
2021/12/16 13:39:42;;;;;;;189.35;56.97;;;;;;;;;;5082251;28;20758;-67
2021/12/16 13:42:12;;;;;;;245.35;62.47;;;;;;;;;;5082104;28;20219;-67
2021/12/16 13:44:44;;;;;;;205.13;61.03;;;;;;;;;;5081569;28;20200;-67
2021/12/16 13:47:20;;;;;;;313.90;75.07;;;;;;;;;;5081373;28;20230;-67
2021/12/16 13:58:41;;;;;;;226.73;59.13;;;;;;;;;;5087926;28;20207;-67
2021/12/16 14:04:25;;;;;;;227.43;65.85;;;;;;;;;;5071405;28;20582;-67
2021/12/16 14:06:58;;;;;;;226.18;59.85;;;;;;;;;;5087883;28;20327;-68
2021/12/16 14:09:32;;;;;;;223.43;61.67;;;;;;;;;;5081157;28;20206;-67
2021/12/16 14:15:11;;;;;;;203.18;58.67;;;;;;;;;;5087337;28;20207;-67
2021/12/16 14:17:46;;;;;;;177.68;55.83;;;;;;;;;;5087654;28;20294;-67
2021/12/16 14:23:07;;;;;;;217.32;60.15;;;;;;;;;;5087423;28;20318;-67
2021/12/16 14:25:41;;;;;;;218.13;58.97;;;;;;;;;;5087606;28;20216;-66
2021/12/16 14:31:23;;;;;;;196.90;58.15;;;;;;;;;;5087276;28;20215;-70
2021/12/16 14:37:08;;;;;;;188.73;55.83;;;;;;;;;;5086950;28;20236;-67
2021/12/16 14:39:53;;;;;;;222.70;59.53;;;;;;;;;;5087236;28;20665;-67
2021/12/16 14:42:38;;;;;;;212.55;58.05;;;;;;;;;;5088203;28;20229;-67
2021/12/16 14:48:08;;;;;;;193.98;59.80;;;;;;;;;;5075959;28;20238;-67
2021/12/16 14:50:37;;;;;;;218.75;60.22;;;;;;;;;;5073613;28;20734;-67
2021/12/16 14:53:13;;;;;;;199.77;58.80;;;;;;;;;;5066475;28;20767;-67
2021/12/16 14:55:40;;;;;;;181.32;52.42;;;;;;;;;;5066690;28;20216;-67
2021/12/16 14:58:09;;;;;;;204.82;56.45;;;;;;;;;;5072862;28;20204;-67
2021/12/16 15:00:41;;;;;;;194.00;56.03;;;;;;;;;;5073034;28;20220;-68
2021/12/16 15:03:11;;;;;;;210.18;56.20;;;;;;;;;;5073303;28;20208;-67
2021/12/16 15:05:43;;;;;;;192.02;56.42;;;;;;;;;;5073158;28;20240;-67
2021/12/16 15:08:12;;;;;;;205.40;56.92;;;;;;;;;;5073047;28;20209;-67
2021/12/16 15:10:40;;;;;;;161.40;53.90;;;;;;;;;;5073098;28;20252;-67
2021/12/16 15:13:15;;;;;;;206.38;57.08;;;;;;;;;;5073224;28;20580;-68
2021/12/16 15:15:53;;;;;;;205.90;58.47;;;;;;;;;;5073223;28;20220;-69
2021/12/16 15:38:36;;;;;;;227.77;60.95;;;;;;;;;;5044502;28;20212;-67
2021/12/16 15:43:55;;;;;;;233.38;60.97;;;;;;;;;;5072357;28;20227;-67
2021/12/16 15:46:25;;;;;;;258.90;65.18;;;;;;;;;;5072397;28;20236;-67
2021/12/16 15:48:54;;;;;;;277.88;65.82;;;;;;;;;;5072249;28;20649;-68
2021/12/16 15:51:22;;;;;;;331.88;95.97;;;;;;;;;;5072630;28;20208;-67
2021/12/16 15:53:52;;;;;;;292.08;81.40;;;;;;;;;;5071401;28;20228;-67
2021/12/16 15:56:21;;;;;;;228.98;61.78;;;;;;;;;;5072105;28;20216;-68
2021/12/16 15:58:50;;;;;;;250.43;62.75;;;;;;;;;;5070600;28;20695;-67
2021/12/16 16:01:19;;;;;;;231.45;60.15;;;;;;;;;;5072093;28;20204;-67
2021/12/16 16:03:48;;;;;;;286.77;67.13;;;;;;;;;;5071805;28;20272;-68
2021/12/16 16:06:16;;;;;;;319.33;72.20;;;;;;;;;;5071687;28;20228;-67
2021/12/16 16:08:48;;;;;;;298.35;70.80;;;;;;;;;;5071848;28;20204;-67
2021/12/16 16:11:17;;;;;;;311.65;73.47;;;;;;;;;;5071620;28;20261;-67
2021/12/16 16:13:48;;;;;;;253.13;63.53;;;;;;;;;;5071621;28;20209;-67
2021/12/16 16:16:17;;;;;;;304.27;66.88;;;;;;;;;;5071578;28;20209;-67
2021/12/16 16:18:55;;;;;;;318.20;68.78;;;;;;;;;;5071581;28;20210;-67
2021/12/16 16:21:25;;;;;;;296.05;64.10;;;;;;;;;;5065889;28;20204;-68
2021/12/16 16:23:55;;;;;;;283.30;64.97;;;;;;;;;;5065221;28;20208;-67
2021/12/16 16:26:24;;;;;;;275.27;62.05;;;;;;;;;;5071932;28;20243;-67
2021/12/16 16:28:53;;;;;;;323.33;73.90;;;;;;;;;;5073250;28;20205;-67
2021/12/16 16:31:22;;;;;;;120.97;47.95;;;;;;;;;;5071461;28;20204;-67
2021/12/16 16:33:50;;;;;;;119.05;48.03;;;;;;;;;;5070856;28;20291;-67
2021/12/16 16:36:18;;;;;;;135.20;50.55;;;;;;;;;;5070857;28;20617;-68
2021/12/16 16:38:48;;;;;;;270.20;78.20;;;;;;;;;;5071234;28;20299;-67
2021/12/16 16:41:17;;;;;;;295.98;78.80;;;;;;;;;;5071266;28;20209;-67
2021/12/16 16:43:46;;;;;;;211.38;63.80;;;;;;;;;;5071080;28;20677;-67
2021/12/16 16:46:15;;;;;;;175.55;53.58;;;;;;;;;;5071008;28;20235;-68
2021/12/16 16:48:52;;;;;;;171.45;53.88;;;;;;;;;;5071071;28;20677;-67
2021/12/16 16:51:21;;;;;;;146.05;50.55;;;;;;;;;;5071359;28;20204;-68
2021/12/16 16:53:59;;;;;;;130.57;47.13;;;;;;;;;;5070375;28;20776;-67
2021/12/16 16:56:34;;;;;;;177.23;54.20;;;;;;;;;;5071009;28;20208;-69
2021/12/16 16:59:04;;;;;;;167.15;54.88;;;;;;;;;;5065168;28;20204;-68
2021/12/16 17:01:32;;;;;;;178.75;55.65;;;;;;;;;;5070885;28;20215;-67
2021/12/16 17:04:01;;;;;;;237.45;65.50;;;;;;;;;;5070571;28;20749;-67
2021/12/16 17:06:30;;;;;;;269.67;64.65;;;;;;;;;;5070674;28;20236;-67
2021/12/16 17:08:59;;;;;;;260.90;61.20;;;;;;;;;;5070775;28;20236;-68
2021/12/16 17:11:27;;;;;;;302.98;68.95;;;;;;;;;;5070540;28;20619;-68
2021/12/16 17:14:00;;;;;;;307.05;74.00;;;;;;;;;;5070590;28;20640;-67
2021/12/16 17:19:15;;;;;;;328.45;70.60;;;;;;;;;;5070814;28;20644;-67
2021/12/16 17:21:46;;;;;;;279.73;65.93;;;;;;;;;;5070556;28;20748;-67
2021/12/16 17:24:17;;;;;;;320.50;69.07;;;;;;;;;;5070647;28;20254;-67
2021/12/16 17:26:47;;;;;;;302.58;68.95;;;;;;;;;;5070744;28;20713;-67